createdAt,value
2019-03-26T00:05:09.323Z,85.30
2019-03-26T00:10:13.683Z,85.60
2019-03-26T00:15:18.082Z,85.70
2019-03-26T00:20:22.379Z,86.00
2019-03-26T00:25:27.026Z,85.20
2019-03-26T00:30:30.288Z,84.90
2019-03-26T00:35:34.952Z,86.70
2019-03-26T00:40:40.283Z,86.10
2019-03-26T00:45:45.279Z,86.70
2019-03-26T00:50:50.099Z,86.50
2019-03-26T00:55:54.849Z,87.60
2019-03-26T01:00:59.410Z,85.60
2019-03-26T01:06:03.998Z,86.40
2019-03-26T01:11:07.151Z,86.40
2019-03-26T01:16:11.527Z,86.70
2019-03-26T01:21:16.044Z,86.20
2019-03-26T01:26:20.597Z,86.40
2019-03-26T01:31:27.758Z,85.80
2019-03-26T01:36:32.726Z,87.00
2019-03-26T01:41:38.242Z,87.10
2019-03-26T01:46:42.570Z,86.70
2019-03-26T01:51:46.907Z,86.40
2019-03-26T01:56:51.220Z,87.50
2019-03-26T02:01:55.535Z,86.70
2019-03-26T02:07:00.148Z,86.80
2019-03-26T02:12:03.620Z,86.00
2019-03-26T02:17:08.001Z,86.80
2019-03-26T02:22:12.423Z,86.70
2019-03-26T02:27:17.271Z,86.60
2019-03-26T02:32:21.973Z,85.70
2019-03-26T02:37:26.320Z,86.30
2019-03-26T02:42:30.867Z,86.00
2019-03-26T02:47:34.311Z,86.10
2019-03-26T02:52:38.705Z,86.60
2019-03-26T02:57:43.613Z,86.10
2019-03-26T03:02:48.419Z,86.30
2019-03-26T03:07:52.755Z,86.00
2019-03-26T03:12:56.999Z,85.90
2019-03-26T03:18:01.372Z,85.90
2019-03-26T03:23:05.842Z,86.90
2019-03-26T03:28:10.207Z,85.50
2019-03-26T03:33:15.049Z,85.50
2019-03-26T03:38:21.962Z,85.20
2019-03-26T03:43:26.317Z,86.60
2019-03-26T03:48:30.946Z,85.80
2019-03-26T03:53:35.593Z,85.30
2019-03-26T03:58:39.103Z,85.30
2019-03-26T04:03:43.453Z,85.50
2019-03-26T04:08:48.156Z,85.20
2019-03-26T04:13:52.841Z,85.00
2019-03-26T04:18:56.288Z,85.00
2019-03-26T04:24:00.665Z,84.10
2019-03-26T04:29:05.256Z,84.10
2019-03-26T04:34:08.809Z,83.80
2019-03-26T04:39:13.093Z,83.50
2019-03-26T04:44:17.431Z,83.40
2019-03-26T04:49:22.000Z,83.60
2019-03-26T04:54:25.567Z,83.60
2019-03-26T04:59:31.130Z,83.10
2019-03-26T05:04:35.431Z,83.10
2019-03-26T05:09:39.760Z,83.10
2019-03-26T05:14:46.459Z,83.80
2019-03-26T05:19:50.794Z,83.70
2019-03-26T05:24:55.465Z,83.60
2019-03-26T05:30:00.159Z,83.30
2019-03-26T05:35:05.602Z,83.00
2019-03-26T05:40:10.846Z,82.90
2019-03-26T05:45:15.454Z,83.20
2019-03-26T05:50:18.935Z,83.80
2019-03-26T05:55:23.602Z,82.70
2019-03-26T06:00:27.162Z,82.80
2019-03-26T06:05:31.779Z,83.10
2019-03-26T06:10:36.134Z,83.10
2019-03-26T06:15:40.440Z,83.20
2019-03-26T06:20:44.991Z,82.70
2019-03-26T06:25:48.161Z,82.20
2019-03-26T06:30:52.463Z,81.70
2019-03-26T06:35:56.819Z,81.60
2019-03-26T06:41:01.375Z,81.80
2019-03-26T06:46:04.654Z,81.50
2019-03-26T06:51:08.964Z,81.40
2019-03-26T06:56:13.330Z,81.20
2019-03-26T07:01:17.645Z,81.00
2019-03-26T07:06:23.358Z,80.70
2019-03-26T07:11:28.447Z,80.70
2019-03-26T07:16:33.039Z,80.70
2019-03-26T07:21:48.886Z,81.00
2019-03-26T07:26:42.257Z,80.90
2019-03-26T07:31:46.834Z,80.50
2019-03-26T07:36:50.117Z,79.90
2019-03-26T07:41:54.778Z,79.10
2019-03-26T07:46:58.235Z,79.20
2019-03-26T07:52:02.540Z,78.30
2019-03-26T07:57:06.851Z,77.60
2019-03-26T08:02:11.278Z,77.00
2019-03-26T08:07:16.202Z,76.40
2019-03-26T08:12:22.062Z,76.80
2019-03-26T08:17:26.365Z,76.80
2019-03-26T08:22:30.660Z,76.40
2019-03-26T08:27:34.922Z,75.90
2019-03-26T08:32:40.207Z,75.00
2019-03-26T08:37:44.604Z,72.70
2019-03-26T08:42:48.969Z,66.20
2019-03-26T08:47:53.319Z,61.00
2019-03-26T08:52:57.699Z,58.20
2019-03-26T08:58:02.161Z,56.20
2019-03-26T09:03:06.790Z,56.10
2019-03-26T09:08:11.051Z,56.20
2019-03-26T09:13:15.638Z,55.30
2019-03-26T09:18:19.952Z,54.90
2019-03-26T09:23:24.301Z,52.80
2019-03-26T09:28:28.582Z,51.80
2019-03-26T09:33:33.922Z,53.90
2019-03-26T09:38:39.489Z,55.30
2019-03-26T09:43:43.892Z,57.40
2019-03-26T09:48:49.070Z,58.50
2019-03-26T09:53:53.454Z,60.70
2019-03-26T09:58:58.049Z,60.20
2019-03-26T10:04:02.666Z,62.80
2019-03-26T10:09:06.657Z,63.30
2019-03-26T10:14:11.262Z,64.20
2019-03-26T10:19:17.012Z,64.40
2019-03-26T10:24:21.498Z,65.50
2019-03-26T10:29:30.544Z,66.20
2019-03-26T10:34:32.104Z,66.20
2019-03-26T10:39:36.522Z,66.50
2019-03-26T10:44:42.875Z,66.70
2019-03-26T10:49:47.391Z,66.00
2019-03-26T10:54:51.961Z,65.40
2019-03-26T10:59:56.546Z,66.20
2019-03-26T11:05:02.204Z,65.60
2019-03-26T11:10:06.600Z,64.80
2019-03-26T11:15:10.989Z,66.00
2019-03-26T11:20:15.356Z,67.20
2019-03-26T11:25:20.132Z,68.40
2019-03-26T11:30:24.508Z,67.80
2019-03-26T11:35:28.833Z,67.80
2019-03-26T11:40:33.669Z,68.40
2019-03-26T11:45:38.578Z,68.60
2019-03-26T11:50:43.169Z,67.90
2019-03-26T11:55:47.464Z,67.20
2019-03-26T12:00:51.824Z,67.70
2019-03-26T12:05:56.442Z,67.90
2019-03-26T12:11:01.199Z,68.40
2019-03-26T12:16:04.381Z,69.00
2019-03-26T12:21:08.955Z,69.60
2019-03-26T12:26:13.244Z,69.80
2019-03-26T12:31:17.753Z,70.30
2019-03-26T12:36:22.027Z,71.30
2019-03-26T12:41:26.588Z,73.30
2019-03-26T12:46:31.139Z,73.30
2019-03-26T12:51:39.078Z,74.40
2019-03-26T12:56:42.151Z,75.00
2019-03-26T13:01:46.453Z,76.50
2019-03-26T13:06:51.043Z,76.90
2019-03-26T13:11:55.312Z,77.20
2019-03-26T13:16:59.860Z,77.00
2019-03-26T13:22:04.260Z,77.50
2019-03-26T13:27:09.626Z,78.30
2019-03-26T13:32:14.375Z,79.20
2019-03-26T13:37:21.659Z,78.60
2019-03-26T13:42:25.127Z,78.20
2019-03-26T13:47:32.482Z,78.60
2019-03-26T13:52:37.027Z,78.80
2019-03-26T13:57:41.379Z,77.40
2019-03-26T14:02:47.662Z,77.90
2019-03-26T14:07:52.274Z,77.80
2019-03-26T14:12:58.538Z,77.10
2019-03-26T14:18:04.836Z,77.30
2019-03-26T14:23:09.375Z,77.30
2019-03-26T14:28:14.242Z,76.80
2019-03-26T14:33:19.846Z,77.30
2019-03-26T14:38:24.436Z,76.40
2019-03-26T14:43:28.816Z,76.90
2019-03-26T14:48:33.154Z,77.40
2019-03-26T14:53:37.947Z,78.40
2019-03-26T14:58:42.452Z,78.80
2019-03-26T15:03:47.117Z,79.90
2019-03-26T15:08:50.256Z,79.30
2019-03-26T15:13:54.910Z,79.40
2019-03-26T15:18:58.195Z,79.20
2019-03-26T15:24:02.962Z,79.40
2019-03-26T15:29:07.299Z,79.50
2019-03-26T15:34:11.599Z,79.40
2019-03-26T15:39:15.949Z,80.50
2019-03-26T15:44:20.664Z,79.30
2019-03-26T15:49:23.928Z,79.00
2019-03-26T15:54:28.506Z,78.80
2019-03-26T15:59:33.102Z,78.80
2019-03-26T16:04:36.253Z,78.70
2019-03-26T16:09:41.510Z,79.20
2019-03-26T16:14:46.477Z,79.20
2019-03-26T16:19:50.874Z,80.10
2019-03-26T16:24:55.263Z,79.80
2019-03-26T16:29:59.535Z,79.90
2019-03-26T16:35:04.183Z,79.70
2019-03-26T16:40:08.535Z,80.30
2019-03-26T16:45:13.493Z,79.90
2019-03-26T16:50:18.222Z,80.10
2019-03-26T16:55:21.830Z,80.30
2019-03-26T17:00:35.129Z,80.30
2019-03-26T17:05:45.365Z,80.10
2019-03-26T17:10:56.370Z,80.30
2019-03-26T17:16:01.454Z,81.90
2019-03-26T17:21:06.850Z,80.80
2019-03-26T17:26:19.307Z,80.70
2019-03-26T17:31:24.255Z,80.90
2019-03-26T17:36:29.138Z,80.70
2019-03-26T17:41:34.302Z,81.20
2019-03-26T17:46:38.791Z,81.50
2019-03-26T17:51:48.918Z,81.10
2019-03-26T17:56:53.122Z,81.40
2019-03-26T18:01:57.601Z,81.80
2019-03-26T18:07:05.305Z,81.60
2019-03-26T18:12:08.647Z,82.20
2019-03-26T18:17:33.679Z,81.70
2019-03-26T18:22:38.074Z,81.80
2019-03-26T18:27:46.434Z,82.40
2019-03-26T18:32:50.735Z,81.80
2019-03-26T18:37:55.363Z,81.30
2019-03-26T18:42:59.723Z,81.60
2019-03-26T18:48:04.095Z,82.90
2019-03-26T18:53:08.445Z,81.80
2019-03-26T18:58:12.791Z,81.70
2019-03-26T19:03:17.463Z,82.20
2019-03-26T19:08:23.925Z,82.10
2019-03-26T19:13:28.807Z,82.90
2019-03-26T19:18:33.456Z,81.90
2019-03-26T19:23:36.926Z,82.10
2019-03-26T19:28:42.337Z,82.10
2019-03-26T19:33:48.150Z,82.10
2019-03-26T19:38:53.046Z,81.80
2019-03-26T19:43:57.921Z,82.70
2019-03-26T19:49:02.532Z,82.50
2019-03-26T19:54:06.896Z,82.80
2019-03-26T19:59:20.216Z,82.60
2019-03-26T20:04:29.566Z,82.90
2019-03-26T20:09:34.692Z,82.70
2019-03-26T20:14:39.526Z,82.80
2019-03-26T20:19:44.011Z,82.90
2019-03-26T20:24:48.697Z,83.40
2019-03-26T20:29:56.778Z,83.00
2019-03-26T20:35:01.422Z,83.00
2019-03-26T20:40:06.295Z,82.60
2019-03-26T20:45:17.266Z,83.00
2019-03-26T20:50:22.562Z,82.50
2019-03-26T20:55:34.356Z,82.30
2019-03-26T21:00:40.387Z,82.20
2019-03-26T21:05:51.593Z,82.50
2019-03-26T21:10:55.935Z,84.20
2019-03-26T21:16:00.274Z,84.70
2019-03-26T21:21:04.700Z,85.40
2019-03-26T21:26:09.080Z,82.80
2019-03-26T21:31:13.429Z,82.50
2019-03-26T21:36:17.816Z,82.00
2019-03-26T21:41:22.184Z,82.30
2019-03-26T21:46:29.626Z,81.90
2019-03-26T21:51:33.943Z,81.80
2019-03-26T21:56:38.346Z,81.90
2019-03-26T22:01:42.765Z,82.10
2019-03-26T22:07:01.864Z,82.00
2019-03-26T22:12:06.655Z,82.50
2019-03-26T22:17:10.990Z,82.10
2019-03-26T22:22:15.629Z,81.90
2019-03-26T22:27:18.917Z,82.20
2019-03-26T22:32:23.254Z,82.50
2019-03-26T22:37:27.503Z,82.80
2019-03-26T22:42:32.098Z,84.60
2019-03-26T22:47:35.539Z,83.90
2019-03-26T22:52:39.905Z,83.80
2019-03-26T22:57:44.772Z,84.20
2019-03-26T23:02:49.869Z,84.80
2019-03-26T23:07:54.246Z,85.50
2019-03-26T23:12:58.898Z,85.90
2019-03-26T23:18:02.666Z,85.60
2019-03-26T23:23:07.244Z,85.80
2019-03-26T23:28:10.761Z,86.10
2019-03-26T23:33:15.431Z,87.00
2019-03-26T23:38:19.713Z,86.70
2019-03-26T23:43:24.099Z,86.40
2019-03-26T23:48:28.727Z,86.80
2019-03-26T23:53:33.578Z,86.40
2019-03-26T23:58:38.560Z,86.40
